sensor_id;sensor_type;location;lat;lon;timestamp;P1;durP1;ratioP1;P2;durP2;ratioP2
58294;SDS011;45705;55.592;37.460;2024-02-15T00:02:21;19.77;;;7.38;;
58294;SDS011;45705;55.592;37.460;2024-02-15T00:04:47;11.00;;;6.03;;
58294;SDS011;45705;55.592;37.460;2024-02-15T00:07:13;14.80;;;6.45;;
58294;SDS011;45705;55.592;37.460;2024-02-15T00:09:39;20.60;;;7.45;;
58294;SDS011;45705;55.592;37.460;2024-02-15T00:12:05;18.35;;;7.88;;
58294;SDS011;45705;55.592;37.460;2024-02-15T00:14:31;13.88;;;6.68;;
58294;SDS011;45705;55.592;37.460;2024-02-15T00:16:57;18.63;;;7.40;;
58294;SDS011;45705;55.592;37.460;2024-02-15T00:19:23;18.73;;;7.13;;
58294;SDS011;45705;55.592;37.460;2024-02-15T00:21:49;13.45;;;6.57;;
58294;SDS011;45705;55.592;37.460;2024-02-15T00:24:15;25.90;;;7.97;;
58294;SDS011;45705;55.592;37.460;2024-02-15T00:26:41;15.20;;;7.03;;
58294;SDS011;45705;55.592;37.460;2024-02-15T00:29:09;12.48;;;7.22;;
58294;SDS011;45705;55.592;37.460;2024-02-15T00:31:35;17.92;;;7.00;;
58294;SDS011;45705;55.592;37.460;2024-02-15T00:34:01;12.25;;;6.28;;
58294;SDS011;45705;55.592;37.460;2024-02-15T00:36:30;15.32;;;6.97;;
58294;SDS011;45705;55.592;37.460;2024-02-15T00:38:55;12.77;;;4.78;;
58294;SDS011;45705;55.592;37.460;2024-02-15T00:41:21;14.27;;;6.95;;
58294;SDS011;45705;55.592;37.460;2024-02-15T00:43:47;16.13;;;7.65;;
58294;SDS011;45705;55.592;37.460;2024-02-15T00:46:13;18.70;;;8.32;;
58294;SDS011;45705;55.592;37.460;2024-02-15T00:48:40;13.70;;;5.80;;
58294;SDS011;45705;55.592;37.460;2024-02-15T00:51:06;16.75;;;7.18;;
58294;SDS011;45705;55.592;37.460;2024-02-15T00:53:32;18.67;;;7.05;;
58294;SDS011;45705;55.592;37.460;2024-02-15T00:55:59;21.38;;;7.20;;
58294;SDS011;45705;55.592;37.460;2024-02-15T00:58:25;14.80;;;6.28;;
58294;SDS011;45705;55.592;37.460;2024-02-15T01:00:53;19.58;;;7.25;;
58294;SDS011;45705;55.592;37.460;2024-02-15T01:03:19;15.98;;;7.43;;
58294;SDS011;45705;55.592;37.460;2024-02-15T01:05:45;10.93;;;5.80;;
58294;SDS011;45705;55.592;37.460;2024-02-15T01:08:11;13.27;;;5.63;;
58294;SDS011;45705;55.592;37.460;2024-02-15T01:10:37;15.45;;;6.18;;
58294;SDS011;45705;55.592;37.460;2024-02-15T01:13:03;12.98;;;5.72;;
58294;SDS011;45705;55.592;37.460;2024-02-15T01:15:29;12.73;;;7.10;;
58294;SDS011;45705;55.592;37.460;2024-02-15T01:17:55;17.05;;;7.00;;
58294;SDS011;45705;55.592;37.460;2024-02-15T01:20:21;14.45;;;7.18;;
58294;SDS011;45705;55.592;37.460;2024-02-15T01:22:47;16.98;;;7.35;;
58294;SDS011;45705;55.592;37.460;2024-02-15T01:25:13;18.35;;;6.88;;
58294;SDS011;45705;55.592;37.460;2024-02-15T01:27:41;13.82;;;5.53;;
58294;SDS011;45705;55.592;37.460;2024-02-15T01:30:07;18.80;;;8.40;;
58294;SDS011;45705;55.592;37.460;2024-02-15T01:32:34;19.17;;;8.35;;
58294;SDS011;45705;55.592;37.460;2024-02-15T01:35:00;14.57;;;6.35;;
58294;SDS011;45705;55.592;37.460;2024-02-15T01:37:26;15.35;;;6.57;;
58294;SDS011;45705;55.592;37.460;2024-02-15T01:39:51;19.35;;;8.50;;
58294;SDS011;45705;55.592;37.460;2024-02-15T01:42:18;14.90;;;7.05;;
58294;SDS011;45705;55.592;37.460;2024-02-15T01:44:44;18.27;;;5.88;;
58294;SDS011;45705;55.592;37.460;2024-02-15T01:47:13;13.70;;;7.35;;
58294;SDS011;45705;55.592;37.460;2024-02-15T01:49:39;13.45;;;6.00;;
58294;SDS011;45705;55.592;37.460;2024-02-15T01:52:06;12.85;;;5.80;;
58294;SDS011;45705;55.592;37.460;2024-02-15T01:54:34;14.93;;;6.22;;
58294;SDS011;45705;55.592;37.460;2024-02-15T01:57:01;10.55;;;5.40;;
58294;SDS011;45705;55.592;37.460;2024-02-15T01:59:28;16.58;;;5.45;;
58294;SDS011;45705;55.592;37.460;2024-02-15T02:01:56;10.82;;;5.00;;
58294;SDS011;45705;55.592;37.460;2024-02-15T02:04:22;18.80;;;8.13;;
58294;SDS011;45705;55.592;37.460;2024-02-15T02:06:48;15.77;;;6.80;;
58294;SDS011;45705;55.592;37.460;2024-02-15T02:09:13;19.58;;;6.88;;
58294;SDS011;45705;55.592;37.460;2024-02-15T02:11:41;11.05;;;5.15;;
58294;SDS011;45705;55.592;37.460;2024-02-15T02:14:10;16.35;;;5.97;;
58294;SDS011;45705;55.592;37.460;2024-02-15T02:16:37;13.65;;;6.85;;
58294;SDS011;45705;55.592;37.460;2024-02-15T02:19:05;13.73;;;6.18;;
58294;SDS011;45705;55.592;37.460;2024-02-15T02:21:37;14.82;;;7.07;;
58294;SDS011;45705;55.592;37.460;2024-02-15T02:24:08;17.73;;;6.95;;
58294;SDS011;45705;55.592;37.460;2024-02-15T02:26:39;11.93;;;6.50;;
58294;SDS011;45705;55.592;37.460;2024-02-15T02:29:05;15.00;;;6.85;;
58294;SDS011;45705;55.592;37.460;2024-02-15T02:31:36;15.25;;;7.15;;
58294;SDS011;45705;55.592;37.460;2024-02-15T02:34:01;16.38;;;6.75;;
58294;SDS011;45705;55.592;37.460;2024-02-15T02:36:28;13.48;;;6.07;;
58294;SDS011;45705;55.592;37.460;2024-02-15T02:38:55;12.93;;;6.68;;
58294;SDS011;45705;55.592;37.460;2024-02-15T02:41:28;16.02;;;7.90;;
58294;SDS011;45705;55.592;37.460;2024-02-15T02:43:55;15.60;;;6.25;;
58294;SDS011;45705;55.592;37.460;2024-02-15T02:46:22;12.48;;;5.32;;
58294;SDS011;45705;55.592;37.460;2024-02-15T02:48:48;17.17;;;7.68;;
58294;SDS011;45705;55.592;37.460;2024-02-15T02:51:14;12.98;;;6.55;;
58294;SDS011;45705;55.592;37.460;2024-02-15T02:53:41;13.82;;;6.28;;
58294;SDS011;45705;55.592;37.460;2024-02-15T02:56:06;14.05;;;6.60;;
58294;SDS011;45705;55.592;37.460;2024-02-15T02:58:35;13.35;;;6.57;;
58294;SDS011;45705;55.592;37.460;2024-02-15T03:01:01;16.15;;;8.20;;
58294;SDS011;45705;55.592;37.460;2024-02-15T03:03:27;13.77;;;6.05;;
58294;SDS011;45705;55.592;37.460;2024-02-15T03:05:53;16.95;;;7.55;;
58294;SDS011;45705;55.592;37.460;2024-02-15T03:08:22;17.75;;;7.30;;
58294;SDS011;45705;55.592;37.460;2024-02-15T03:10:49;18.00;;;5.43;;
58294;SDS011;45705;55.592;37.460;2024-02-15T03:13:17;10.43;;;5.00;;
58294;SDS011;45705;55.592;37.460;2024-02-15T03:15:44;15.93;;;8.30;;
58294;SDS011;45705;55.592;37.460;2024-02-15T03:18:16;15.05;;;6.93;;
58294;SDS011;45705;55.592;37.460;2024-02-15T03:20:42;14.93;;;7.32;;
58294;SDS011;45705;55.592;37.460;2024-02-15T03:23:09;13.20;;;5.63;;
58294;SDS011;45705;55.592;37.460;2024-02-15T03:25:34;19.15;;;7.63;;
58294;SDS011;45705;55.592;37.460;2024-02-15T03:28:00;17.10;;;7.32;;
58294;SDS011;45705;55.592;37.460;2024-02-15T03:32:59;15.02;;;6.22;;
58294;SDS011;45705;55.592;37.460;2024-02-15T03:35:26;14.25;;;6.72;;
58294;SDS011;45705;55.592;37.460;2024-02-15T03:37:54;14.05;;;6.88;;
58294;SDS011;45705;55.592;37.460;2024-02-15T03:40:20;18.83;;;8.43;;
58294;SDS011;45705;55.592;37.460;2024-02-15T03:42:47;15.50;;;7.57;;
58294;SDS011;45705;55.592;37.460;2024-02-15T03:45:13;17.85;;;7.85;;
58294;SDS011;45705;55.592;37.460;2024-02-15T03:47:39;17.52;;;8.05;;
58294;SDS011;45705;55.592;37.460;2024-02-15T03:50:06;18.63;;;7.47;;
58294;SDS011;45705;55.592;37.460;2024-02-15T03:52:37;15.02;;;7.57;;
58294;SDS011;45705;55.592;37.460;2024-02-15T03:55:04;13.45;;;5.72;;
58294;SDS011;45705;55.592;37.460;2024-02-15T03:57:32;18.87;;;8.50;;
58294;SDS011;45705;55.592;37.460;2024-02-15T03:59:59;18.45;;;9.52;;
58294;SDS011;45705;55.592;37.460;2024-02-15T04:02:25;20.25;;;7.25;;
58294;SDS011;45705;55.592;37.460;2024-02-15T04:04:52;15.00;;;6.75;;
58294;SDS011;45705;55.592;37.460;2024-02-15T04:07:24;13.48;;;5.88;;
58294;SDS011;45705;55.592;37.460;2024-02-15T04:09:52;14.68;;;6.63;;
58294;SDS011;45705;55.592;37.460;2024-02-15T04:12:18;13.88;;;5.68;;
58294;SDS011;45705;55.592;37.460;2024-02-15T04:14:44;17.85;;;7.53;;
58294;SDS011;45705;55.592;37.460;2024-02-15T04:17:13;19.33;;;7.47;;
58294;SDS011;45705;55.592;37.460;2024-02-15T04:19:43;18.40;;;6.30;;
58294;SDS011;45705;55.592;37.460;2024-02-15T04:22:10;13.80;;;7.07;;
58294;SDS011;45705;55.592;37.460;2024-02-15T04:24:36;17.90;;;6.95;;
58294;SDS011;45705;55.592;37.460;2024-02-15T04:27:05;20.95;;;7.65;;
58294;SDS011;45705;55.592;37.460;2024-02-15T04:29:34;17.73;;;6.90;;
58294;SDS011;45705;55.592;37.460;2024-02-15T04:32:00;13.52;;;6.30;;
58294;SDS011;45705;55.592;37.460;2024-02-15T04:34:26;16.05;;;6.28;;
58294;SDS011;45705;55.592;37.460;2024-02-15T04:36:54;11.80;;;5.47;;
58294;SDS011;45705;55.592;37.460;2024-02-15T04:39:24;17.15;;;7.47;;
58294;SDS011;45705;55.592;37.460;2024-02-15T04:41:52;13.15;;;6.38;;
58294;SDS011;45705;55.592;37.460;2024-02-15T04:44:19;17.85;;;7.95;;
58294;SDS011;45705;55.592;37.460;2024-02-15T04:46:52;16.70;;;7.15;;
58294;SDS011;45705;55.592;37.460;2024-02-15T04:49:19;14.68;;;5.75;;
58294;SDS011;45705;55.592;37.460;2024-02-15T04:51:45;16.60;;;7.53;;
58294;SDS011;45705;55.592;37.460;2024-02-15T04:54:12;15.88;;;7.63;;
58294;SDS011;45705;55.592;37.460;2024-02-15T04:56:42;11.95;;;6.53;;
58294;SDS011;45705;55.592;37.460;2024-02-15T04:59:09;13.35;;;5.30;;
58294;SDS011;45705;55.592;37.460;2024-02-15T05:01:37;16.13;;;6.20;;
58294;SDS011;45705;55.592;37.460;2024-02-15T05:04:03;19.17;;;5.78;;
58294;SDS011;45705;55.592;37.460;2024-02-15T05:08:58;17.48;;;6.55;;
58294;SDS011;45705;55.592;37.460;2024-02-15T05:11:32;14.80;;;6.45;;
58294;SDS011;45705;55.592;37.460;2024-02-15T05:14:01;11.05;;;5.40;;
58294;SDS011;45705;55.592;37.460;2024-02-15T05:16:28;11.30;;;5.43;;
58294;SDS011;45705;55.592;37.460;2024-02-15T05:18:53;11.80;;;5.88;;
58294;SDS011;45705;55.592;37.460;2024-02-15T05:21:19;14.27;;;5.70;;
58294;SDS011;45705;55.592;37.460;2024-02-15T05:23:45;13.32;;;5.13;;
58294;SDS011;45705;55.592;37.460;2024-02-15T05:26:11;10.65;;;5.15;;
58294;SDS011;45705;55.592;37.460;2024-02-15T05:28:41;11.05;;;5.28;;
58294;SDS011;45705;55.592;37.460;2024-02-15T05:31:09;11.38;;;4.82;;
58294;SDS011;45705;55.592;37.460;2024-02-15T05:33:52;11.93;;;5.35;;
58294;SDS011;45705;55.592;37.460;2024-02-15T05:36:19;11.38;;;5.00;;
58294;SDS011;45705;55.592;37.460;2024-02-15T05:38:46;8.40;;;4.45;;
58294;SDS011;45705;55.592;37.460;2024-02-15T05:41:13;7.97;;;4.25;;
58294;SDS011;45705;55.592;37.460;2024-02-15T05:43:39;13.43;;;6.10;;
58294;SDS011;45705;55.592;37.460;2024-02-15T05:46:07;4.65;;;3.80;;
58294;SDS011;45705;55.592;37.460;2024-02-15T05:48:33;9.80;;;4.28;;
58294;SDS011;45705;55.592;37.460;2024-02-15T05:51:05;12.13;;;5.75;;
58294;SDS011;45705;55.592;37.460;2024-02-15T05:53:34;16.48;;;4.80;;
58294;SDS011;45705;55.592;37.460;2024-02-15T05:56:03;11.15;;;5.63;;
58294;SDS011;45705;55.592;37.460;2024-02-15T05:58:32;13.57;;;5.18;;
58294;SDS011;45705;55.592;37.460;2024-02-15T06:00:59;10.27;;;4.32;;
58294;SDS011;45705;55.592;37.460;2024-02-15T06:03:28;15.05;;;5.38;;
58294;SDS011;45705;55.592;37.460;2024-02-15T06:05:54;9.75;;;4.65;;
58294;SDS011;45705;55.592;37.460;2024-02-15T06:08:30;7.18;;;3.05;;
58294;SDS011;45705;55.592;37.460;2024-02-15T06:10:56;10.07;;;4.50;;
58294;SDS011;45705;55.592;37.460;2024-02-15T06:13:22;6.03;;;4.03;;
58294;SDS011;45705;55.592;37.460;2024-02-15T06:15:51;8.07;;;4.55;;
58294;SDS011;45705;55.592;37.460;2024-02-15T06:18:24;11.82;;;4.05;;
58294;SDS011;45705;55.592;37.460;2024-02-15T06:20:52;11.73;;;5.60;;
58294;SDS011;45705;55.592;37.460;2024-02-15T06:23:19;10.90;;;3.78;;
58294;SDS011;45705;55.592;37.460;2024-02-15T06:25:50;6.55;;;3.95;;
58294;SDS011;45705;55.592;37.460;2024-02-15T06:28:18;6.38;;;3.17;;
58294;SDS011;45705;55.592;37.460;2024-02-15T06:31:02;16.65;;;5.25;;
58294;SDS011;45705;55.592;37.460;2024-02-15T06:33:47;10.45;;;5.07;;
58294;SDS011;45705;55.592;37.460;2024-02-15T06:36:31;5.50;;;3.58;;
58294;SDS011;45705;55.592;37.460;2024-02-15T06:39:15;11.80;;;4.05;;
58294;SDS011;45705;55.592;37.460;2024-02-15T06:41:59;16.63;;;5.10;;
58294;SDS011;45705;55.592;37.460;2024-02-15T06:44:26;6.55;;;2.85;;
58294;SDS011;45705;55.592;37.460;2024-02-15T06:46:52;13.73;;;5.82;;
58294;SDS011;45705;55.592;37.460;2024-02-15T06:49:18;7.47;;;4.10;;
58294;SDS011;45705;55.592;37.460;2024-02-15T06:51:47;11.50;;;3.55;;
58294;SDS011;45705;55.592;37.460;2024-02-15T06:54:13;8.05;;;4.88;;
58294;SDS011;45705;55.592;37.460;2024-02-15T06:56:38;10.77;;;4.22;;
58294;SDS011;45705;55.592;37.460;2024-02-15T06:59:08;11.55;;;5.13;;
58294;SDS011;45705;55.592;37.460;2024-02-15T07:01:35;8.60;;;4.45;;
58294;SDS011;45705;55.592;37.460;2024-02-15T07:04:01;9.15;;;3.53;;
58294;SDS011;45705;55.592;37.460;2024-02-15T07:06:28;11.35;;;2.65;;
58294;SDS011;45705;55.592;37.460;2024-02-15T07:08:54;6.65;;;3.28;;
58294;SDS011;45705;55.592;37.460;2024-02-15T07:11:22;9.93;;;3.85;;
58294;SDS011;45705;55.592;37.460;2024-02-15T07:13:47;14.27;;;5.03;;
58294;SDS011;45705;55.592;37.460;2024-02-15T07:16:13;13.05;;;5.55;;
58294;SDS011;45705;55.592;37.460;2024-02-15T07:18:41;11.23;;;3.92;;
58294;SDS011;45705;55.592;37.460;2024-02-15T07:21:06;10.73;;;5.75;;
58294;SDS011;45705;55.592;37.460;2024-02-15T07:23:39;12.25;;;5.00;;
58294;SDS011;45705;55.592;37.460;2024-02-15T07:26:06;5.65;;;3.25;;
58294;SDS011;45705;55.592;37.460;2024-02-15T07:28:33;10.88;;;4.75;;
58294;SDS011;45705;55.592;37.460;2024-02-15T07:30:59;10.57;;;4.03;;
58294;SDS011;45705;55.592;37.460;2024-02-15T07:33:28;12.50;;;4.03;;
58294;SDS011;45705;55.592;37.460;2024-02-15T07:35:54;5.95;;;2.65;;
58294;SDS011;45705;55.592;37.460;2024-02-15T07:38:21;20.23;;;7.85;;
58294;SDS011;45705;55.592;37.460;2024-02-15T07:43:16;10.30;;;3.60;;
58294;SDS011;45705;55.592;37.460;2024-02-15T07:45:42;15.82;;;6.45;;
58294;SDS011;45705;55.592;37.460;2024-02-15T07:48:08;14.68;;;5.50;;
58294;SDS011;45705;55.592;37.460;2024-02-15T07:50:34;10.15;;;4.88;;
58294;SDS011;45705;55.592;37.460;2024-02-15T07:53:03;8.15;;;3.90;;
58294;SDS011;45705;55.592;37.460;2024-02-15T07:57:57;22.23;;;5.57;;
58294;SDS011;45705;55.592;37.460;2024-02-15T08:00:24;20.70;;;6.40;;
58294;SDS011;45705;55.592;37.460;2024-02-15T08:02:53;15.87;;;4.20;;
58294;SDS011;45705;55.592;37.460;2024-02-15T08:05:19;9.30;;;5.13;;
58294;SDS011;45705;55.592;37.460;2024-02-15T08:07:46;13.55;;;6.25;;
58294;SDS011;45705;55.592;37.460;2024-02-15T08:10:14;13.15;;;4.32;;
58294;SDS011;45705;55.592;37.460;2024-02-15T08:12:43;14.75;;;5.35;;
58294;SDS011;45705;55.592;37.460;2024-02-15T08:15:10;18.98;;;5.57;;
58294;SDS011;45705;55.592;37.460;2024-02-15T08:17:40;19.95;;;6.90;;
58294;SDS011;45705;55.592;37.460;2024-02-15T08:20:07;13.20;;;5.55;;
58294;SDS011;45705;55.592;37.460;2024-02-15T08:22:35;13.75;;;5.95;;
58294;SDS011;45705;55.592;37.460;2024-02-15T08:25:13;5.63;;;3.95;;
58294;SDS011;45705;55.592;37.460;2024-02-15T08:27:41;15.60;;;5.75;;
58294;SDS011;45705;55.592;37.460;2024-02-15T08:30:12;13.40;;;5.55;;
58294;SDS011;45705;55.592;37.460;2024-02-15T08:32:39;14.90;;;5.90;;
58294;SDS011;45705;55.592;37.460;2024-02-15T08:35:09;12.43;;;7.00;;
58294;SDS011;45705;55.592;37.460;2024-02-15T08:37:36;9.77;;;4.90;;
58294;SDS011;45705;55.592;37.460;2024-02-15T08:40:04;16.15;;;6.10;;
58294;SDS011;45705;55.592;37.460;2024-02-15T08:42:37;12.27;;;6.63;;
58294;SDS011;45705;55.592;37.460;2024-02-15T08:45:03;15.05;;;6.65;;
58294;SDS011;45705;55.592;37.460;2024-02-15T08:47:30;13.73;;;5.03;;
58294;SDS011;45705;55.592;37.460;2024-02-15T08:49:56;12.68;;;4.75;;
58294;SDS011;45705;55.592;37.460;2024-02-15T08:52:22;14.88;;;5.82;;
58294;SDS011;45705;55.592;37.460;2024-02-15T08:54:47;19.42;;;6.63;;
58294;SDS011;45705;55.592;37.460;2024-02-15T08:57:13;13.50;;;6.15;;
58294;SDS011;45705;55.592;37.460;2024-02-15T08:59:39;15.82;;;6.97;;
58294;SDS011;45705;55.592;37.460;2024-02-15T09:02:04;12.73;;;6.55;;
58294;SDS011;45705;55.592;37.460;2024-02-15T09:04:30;15.40;;;5.63;;
58294;SDS011;45705;55.592;37.460;2024-02-15T09:06:56;17.13;;;6.50;;
58294;SDS011;45705;55.592;37.460;2024-02-15T09:09:22;14.02;;;6.47;;
58294;SDS011;45705;55.592;37.460;2024-02-15T09:11:47;17.23;;;6.63;;
58294;SDS011;45705;55.592;37.460;2024-02-15T09:14:13;19.52;;;7.35;;
58294;SDS011;45705;55.592;37.460;2024-02-15T09:16:39;19.55;;;8.02;;
58294;SDS011;45705;55.592;37.460;2024-02-15T09:19:05;16.33;;;5.60;;
58294;SDS011;45705;55.592;37.460;2024-02-15T09:21:31;14.98;;;6.25;;
58294;SDS011;45705;55.592;37.460;2024-02-15T09:36:56;23.42;;;9.75;;
58294;SDS011;45705;55.592;37.460;2024-02-15T09:39:22;16.95;;;8.48;;
58294;SDS011;45705;55.592;37.460;2024-02-15T09:41:48;16.30;;;6.95;;
58294;SDS011;45705;55.592;37.460;2024-02-15T09:44:21;19.10;;;8.57;;
58294;SDS011;45705;55.592;37.460;2024-02-15T09:46:47;20.27;;;8.38;;
58294;SDS011;45705;55.592;37.460;2024-02-15T09:49:19;17.17;;;7.25;;
58294;SDS011;45705;55.592;37.460;2024-02-15T09:51:46;19.25;;;9.05;;
58294;SDS011;45705;55.592;37.460;2024-02-15T09:54:14;19.80;;;8.40;;
58294;SDS011;45705;55.592;37.460;2024-02-15T09:56:47;19.60;;;8.38;;
58294;SDS011;45705;55.592;37.460;2024-02-15T09:59:15;21.65;;;8.85;;
58294;SDS011;45705;55.592;37.460;2024-02-15T10:01:41;18.05;;;7.13;;
58294;SDS011;45705;55.592;37.460;2024-02-15T10:04:09;18.15;;;8.73;;
58294;SDS011;45705;55.592;37.460;2024-02-15T10:06:37;16.13;;;7.63;;
58294;SDS011;45705;55.592;37.460;2024-02-15T10:11:59;20.95;;;9.95;;
58294;SDS011;45705;55.592;37.460;2024-02-15T10:14:26;20.45;;;8.18;;
58294;SDS011;45705;55.592;37.460;2024-02-15T10:16:53;18.45;;;8.48;;
58294;SDS011;45705;55.592;37.460;2024-02-15T10:19:23;21.85;;;8.10;;
58294;SDS011;45705;55.592;37.460;2024-02-15T10:21:52;16.40;;;8.35;;
58294;SDS011;45705;55.592;37.460;2024-02-15T10:24:21;18.25;;;8.15;;
58294;SDS011;45705;55.592;37.460;2024-02-15T10:26:49;17.13;;;7.85;;
58294;SDS011;45705;55.592;37.460;2024-02-15T10:29:16;25.00;;;8.63;;
58294;SDS011;45705;55.592;37.460;2024-02-15T10:32:01;24.15;;;8.93;;
58294;SDS011;45705;55.592;37.460;2024-02-15T10:34:28;20.00;;;8.35;;
58294;SDS011;45705;55.592;37.460;2024-02-15T10:36:54;25.83;;;9.48;;
58294;SDS011;45705;55.592;37.460;2024-02-15T10:39:23;18.95;;;8.65;;
58294;SDS011;45705;55.592;37.460;2024-02-15T10:41:50;21.58;;;9.90;;
58294;SDS011;45705;55.592;37.460;2024-02-15T10:44:17;22.48;;;9.73;;
58294;SDS011;45705;55.592;37.460;2024-02-15T10:46:47;17.77;;;7.05;;
58294;SDS011;45705;55.592;37.460;2024-02-15T10:49:19;25.50;;;8.75;;
58294;SDS011;45705;55.592;37.460;2024-02-15T10:51:55;23.70;;;9.32;;
58294;SDS011;45705;55.592;37.460;2024-02-15T10:54:26;21.85;;;9.68;;
58294;SDS011;45705;55.592;37.460;2024-02-15T10:57:03;27.90;;;10.15;;
58294;SDS011;45705;55.592;37.460;2024-02-15T10:59:31;18.05;;;8.02;;
58294;SDS011;45705;55.592;37.460;2024-02-15T11:02:00;21.75;;;9.18;;
58294;SDS011;45705;55.592;37.460;2024-02-15T11:04:30;26.88;;;9.13;;
58294;SDS011;45705;55.592;37.460;2024-02-15T11:07:00;22.58;;;8.98;;
58294;SDS011;45705;55.592;37.460;2024-02-15T11:09:26;17.42;;;7.85;;
58294;SDS011;45705;55.592;37.460;2024-02-15T11:11:54;22.92;;;8.05;;
58294;SDS011;45705;55.592;37.460;2024-02-15T11:14:28;20.75;;;9.18;;
58294;SDS011;45705;55.592;37.460;2024-02-15T11:16:58;19.45;;;8.20;;
58294;SDS011;45705;55.592;37.460;2024-02-15T11:22:08;20.85;;;9.95;;
58294;SDS011;45705;55.592;37.460;2024-02-15T11:24:36;19.52;;;8.80;;
58294;SDS011;45705;55.592;37.460;2024-02-15T11:27:05;19.98;;;9.77;;
58294;SDS011;45705;55.592;37.460;2024-02-15T11:29:47;21.90;;;9.73;;
58294;SDS011;45705;55.592;37.460;2024-02-15T11:35:05;20.73;;;8.25;;
58294;SDS011;45705;55.592;37.460;2024-02-15T11:43:06;17.70;;;8.60;;
58294;SDS011;45705;55.592;37.460;2024-02-15T11:45:34;18.42;;;7.47;;
58294;SDS011;45705;55.592;37.460;2024-02-15T11:48:07;17.95;;;8.63;;
58294;SDS011;45705;55.592;37.460;2024-02-15T11:50:37;20.70;;;7.80;;
58294;SDS011;45705;55.592;37.460;2024-02-15T11:53:05;22.25;;;9.10;;
58294;SDS011;45705;55.592;37.460;2024-02-15T11:55:34;20.02;;;8.63;;
58294;SDS011;45705;55.592;37.460;2024-02-15T11:58:01;19.15;;;8.90;;
58294;SDS011;45705;55.592;37.460;2024-02-15T12:00:34;23.92;;;8.68;;
58294;SDS011;45705;55.592;37.460;2024-02-15T12:03:19;16.20;;;8.68;;
58294;SDS011;45705;55.592;37.460;2024-02-15T12:06:04;15.50;;;7.72;;
58294;SDS011;45705;55.592;37.460;2024-02-15T12:08:59;18.40;;;8.32;;
58294;SDS011;45705;55.592;37.460;2024-02-15T12:11:44;17.20;;;7.55;;
58294;SDS011;45705;55.592;37.460;2024-02-15T12:14:28;21.88;;;9.35;;
58294;SDS011;45705;55.592;37.460;2024-02-15T12:17:12;18.77;;;8.80;;
58294;SDS011;45705;55.592;37.460;2024-02-15T12:19:59;20.80;;;8.63;;
58294;SDS011;45705;55.592;37.460;2024-02-15T12:22:28;18.02;;;7.90;;
58294;SDS011;45705;55.592;37.460;2024-02-15T12:24:57;18.77;;;9.07;;
58294;SDS011;45705;55.592;37.460;2024-02-15T12:27:24;15.02;;;7.90;;
58294;SDS011;45705;55.592;37.460;2024-02-15T12:29:56;16.15;;;8.15;;
58294;SDS011;45705;55.592;37.460;2024-02-15T12:32:26;20.05;;;8.68;;
58294;SDS011;45705;55.592;37.460;2024-02-15T12:34:53;21.77;;;8.57;;
58294;SDS011;45705;55.592;37.460;2024-02-15T12:37:35;15.43;;;8.32;;
58294;SDS011;45705;55.592;37.460;2024-02-15T12:40:10;20.92;;;8.90;;
58294;SDS011;45705;55.592;37.460;2024-02-15T12:42:45;17.17;;;8.13;;
58294;SDS011;45705;55.592;37.460;2024-02-15T12:45:19;22.88;;;9.50;;
58294;SDS011;45705;55.592;37.460;2024-02-15T12:47:52;21.98;;;9.27;;
58294;SDS011;45705;55.592;37.460;2024-02-15T12:50:20;18.00;;;8.82;;
58294;SDS011;45705;55.592;37.460;2024-02-15T12:52:47;20.40;;;9.05;;
58294;SDS011;45705;55.592;37.460;2024-02-15T12:55:15;24.33;;;9.25;;
58294;SDS011;45705;55.592;37.460;2024-02-15T12:57:43;23.75;;;9.90;;
58294;SDS011;45705;55.592;37.460;2024-02-15T13:00:11;19.10;;;8.50;;
58294;SDS011;45705;55.592;37.460;2024-02-15T13:02:50;24.80;;;9.82;;
58294;SDS011;45705;55.592;37.460;2024-02-15T13:05:17;15.88;;;8.40;;
58294;SDS011;45705;55.592;37.460;2024-02-15T13:07:50;15.95;;;7.22;;
58294;SDS011;45705;55.592;37.460;2024-02-15T13:10:17;21.10;;;8.75;;
58294;SDS011;45705;55.592;37.460;2024-02-15T13:12:43;18.40;;;8.93;;
58294;SDS011;45705;55.592;37.460;2024-02-15T13:15:12;18.70;;;9.00;;
58294;SDS011;45705;55.592;37.460;2024-02-15T13:17:47;21.25;;;8.95;;
58294;SDS011;45705;55.592;37.460;2024-02-15T13:20:17;21.23;;;9.27;;
58294;SDS011;45705;55.592;37.460;2024-02-15T13:22:46;18.45;;;8.75;;
58294;SDS011;45705;55.592;37.460;2024-02-15T13:25:15;23.67;;;9.65;;
58294;SDS011;45705;55.592;37.460;2024-02-15T13:27:46;22.73;;;9.15;;
58294;SDS011;45705;55.592;37.460;2024-02-15T13:30:12;23.65;;;9.32;;
58294;SDS011;45705;55.592;37.460;2024-02-15T13:32:39;18.98;;;8.38;;
58294;SDS011;45705;55.592;37.460;2024-02-15T13:35:08;20.17;;;9.07;;
58294;SDS011;45705;55.592;37.460;2024-02-15T13:37:47;21.48;;;9.55;;
58294;SDS011;45705;55.592;37.460;2024-02-15T13:40:14;24.48;;;9.30;;
58294;SDS011;45705;55.592;37.460;2024-02-15T13:45:15;20.55;;;9.13;;
58294;SDS011;45705;55.592;37.460;2024-02-15T13:47:45;16.20;;;7.70;;
58294;SDS011;45705;55.592;37.460;2024-02-15T13:50:15;16.92;;;7.63;;
58294;SDS011;45705;55.592;37.460;2024-02-15T13:52:45;20.45;;;9.23;;
58294;SDS011;45705;55.592;37.460;2024-02-15T13:57:38;22.15;;;9.07;;
58294;SDS011;45705;55.592;37.460;2024-02-15T14:00:09;15.50;;;7.70;;
58294;SDS011;45705;55.592;37.460;2024-02-15T14:02:40;15.63;;;8.30;;
58294;SDS011;45705;55.592;37.460;2024-02-15T14:05:08;19.33;;;8.75;;
58294;SDS011;45705;55.592;37.460;2024-02-15T14:07:36;20.20;;;9.15;;
58294;SDS011;45705;55.592;37.460;2024-02-15T14:10:04;14.90;;;6.28;;
58294;SDS011;45705;55.592;37.460;2024-02-15T14:12:31;21.23;;;8.98;;
58294;SDS011;45705;55.592;37.460;2024-02-15T14:14:57;23.15;;;10.15;;
58294;SDS011;45705;55.592;37.460;2024-02-15T14:17:23;20.95;;;9.55;;
58294;SDS011;45705;55.592;37.460;2024-02-15T14:19:49;21.70;;;9.70;;
58294;SDS011;45705;55.592;37.460;2024-02-15T14:22:15;18.95;;;9.05;;
58294;SDS011;45705;55.592;37.460;2024-02-15T14:24:43;24.65;;;11.13;;
58294;SDS011;45705;55.592;37.460;2024-02-15T14:27:09;19.35;;;10.13;;
58294;SDS011;45705;55.592;37.460;2024-02-15T14:29:39;20.42;;;9.40;;
58294;SDS011;45705;55.592;37.460;2024-02-15T14:32:24;16.63;;;7.30;;
58294;SDS011;45705;55.592;37.460;2024-02-15T14:35:08;18.77;;;9.40;;
58294;SDS011;45705;55.592;37.460;2024-02-15T14:37:34;28.70;;;10.75;;
58294;SDS011;45705;55.592;37.460;2024-02-15T14:40:00;18.15;;;9.50;;
58294;SDS011;45705;55.592;37.460;2024-02-15T14:42:25;19.38;;;8.00;;
58294;SDS011;45705;55.592;37.460;2024-02-15T14:44:51;19.95;;;8.63;;
58294;SDS011;45705;55.592;37.460;2024-02-15T14:47:17;19.48;;;8.82;;
58294;SDS011;45705;55.592;37.460;2024-02-15T14:49:43;20.77;;;9.00;;
58294;SDS011;45705;55.592;37.460;2024-02-15T14:52:09;24.55;;;10.43;;
58294;SDS011;45705;55.592;37.460;2024-02-15T14:54:35;17.10;;;9.43;;
58294;SDS011;45705;55.592;37.460;2024-02-15T14:57:01;15.55;;;6.88;;
58294;SDS011;45705;55.592;37.460;2024-02-15T14:59:27;17.88;;;8.30;;
58294;SDS011;45705;55.592;37.460;2024-02-15T15:01:52;27.77;;;9.90;;
58294;SDS011;45705;55.592;37.460;2024-02-15T15:04:18;21.55;;;9.85;;
58294;SDS011;45705;55.592;37.460;2024-02-15T15:06:44;20.13;;;8.32;;
58294;SDS011;45705;55.592;37.460;2024-02-15T15:09:29;21.58;;;9.98;;
58294;SDS011;45705;55.592;37.460;2024-02-15T15:12:13;14.65;;;7.03;;